Airfield :
LOGIN :

Register | Disclaimer

   EN    FR    IT 

 










Legend :    VFR   Marginal VFR   IFR   Intensive IFR   Very Intensive IFR
Visi :
Ceiling :
>= 8 km
>= 3000ft
5 to 8 km
1000 to 3000 ft
1500m to 5 km
500 to 1000 ft
800 to 1500m
200 to 500 ft
< 800m
< 200 ft
Symbols :   Thunderstorms  Fog  Heavy snow  Heavy precipitations  Wind > 20 kt
SIGMETs :     Misc.  Thunderstorms  Icing  Turbulence  Mountain Waves  Volcanic Ashes






- Airport Elevation : 26 ft
- IATA code : BIA


LFKB - Bastia

CURRENT METAR :
  • 030100Z AUTO 21008KT 170V230 CAVOK 18/12 Q1012 NOSIG

EXPIRED METARs :
  • 030030Z AUTO 20007KT CAVOK 17/13 Q1012 NOSIG
  • 030000Z AUTO 22009KT CAVOK 18/12 Q1012 NOSIG
  • 022330Z AUTO 22008KT CAVOK 18/13 Q1012 NOSIG
  • 022300Z AUTO 22010KT CAVOK 19/13 Q1012 NOSIG
  • 022230Z AUTO 20010KT CAVOK 19/13 Q1012 NOSIG

TAF TAF LFKB
Valid from the 02 at 21:00 until the 03 at 21:00 UTC


022000Z 0221/0321 24005KT CAVOK TX24/0312Z TN14/0303Z
BECMG 0307/0309 06008KT SCT030
BECMG 0317/0320 24004KT CAVOK
ATIS : +33 4 95 59 19 40



MET'MAP, your aeronautical weather chart ! - Copyright ORBIFLY December 2007 - Disclaimer

ORBIFLY MET'MAP TEAM :

Programming & Development : Alexandra Zaïnal
Concept & original design : Baudouin d'Aumeries
Assistance for programming : Marc-Olivier Méhu
Technical & hardware support : Manuel Goepfert

Contact : metmap@orbifly.com




SOURCES & CREDITS :

   NOAA